createdAt,value
2023-05-21T00:00:26.223Z,88.56
2023-05-21T00:00:58.903Z,88.06
2023-05-21T00:01:31.570Z,87.85
2023-05-21T00:02:04.254Z,87.85
2023-05-21T00:02:37.006Z,87.85
2023-05-21T00:03:09.751Z,87.65
2023-05-21T00:03:42.632Z,87.65
2023-05-21T00:04:15.361Z,87.75
2023-05-21T00:04:47.995Z,87.65
2023-05-21T00:05:20.664Z,87.45
2023-05-21T00:05:53.526Z,87.95
2023-05-21T00:06:26.214Z,88.16
2023-05-21T00:06:58.858Z,87.95
2023-05-21T00:07:31.589Z,87.65
2023-05-21T00:08:04.231Z,87.45
2023-05-21T00:08:36.912Z,87.55
2023-05-21T00:09:09.621Z,87.55
2023-05-21T00:09:42.283Z,87.55
2023-05-21T00:10:14.982Z,87.55
2023-05-21T00:10:47.632Z,87.34
2023-05-21T00:11:20.320Z,87.04
2023-05-21T00:11:52.980Z,87.14
2023-05-21T00:12:25.656Z,87.14
2023-05-21T00:12:58.323Z,87.24
2023-05-21T00:13:30.990Z,87.24
2023-05-21T00:14:03.685Z,87.24
2023-05-21T00:14:36.351Z,87.24
2023-05-21T00:15:09.021Z,87.24
2023-05-21T00:15:41.715Z,87.14
2023-05-21T00:16:14.463Z,87.14
2023-05-21T00:16:47.216Z,87.24
2023-05-21T00:17:19.946Z,87.34
2023-05-21T00:17:52.679Z,87.49
2023-05-21T00:18:25.357Z,87.38
2023-05-21T00:18:58.273Z,87.38
2023-05-21T00:19:31.110Z,87.29
2023-05-21T00:20:03.813Z,87.18
2023-05-21T00:20:36.472Z,87.29
2023-05-21T00:21:09.277Z,87.29
2023-05-21T00:21:41.928Z,87.38
2023-05-21T00:22:14.633Z,87.49
2023-05-21T00:22:47.285Z,87.59
2023-05-21T00:23:19.952Z,87.59
2023-05-21T00:23:52.629Z,87.69
2023-05-21T00:24:25.294Z,87.79
2023-05-21T00:24:57.970Z,87.79
2023-05-21T00:25:30.633Z,87.79
2023-05-21T00:26:03.312Z,87.79
2023-05-21T00:26:35.960Z,87.59
2023-05-21T00:27:08.662Z,87.59
2023-05-21T00:27:41.321Z,87.59
2023-05-21T00:28:14.003Z,87.69
2023-05-21T00:28:46.665Z,87.69
2023-05-21T00:29:19.342Z,87.89
2023-05-21T00:29:52.018Z,87.89
2023-05-21T00:30:24.690Z,87.99
2023-05-21T00:30:57.357Z,87.99
2023-05-21T00:31:30.067Z,87.99
2023-05-21T00:32:01.176Z,88.10
2023-05-21T00:32:33.865Z,87.99
2023-05-21T00:33:06.553Z,87.99
2023-05-21T00:33:39.237Z,87.99
2023-05-21T00:34:11.950Z,87.89
2023-05-21T00:34:44.612Z,87.89
2023-05-21T00:35:17.301Z,87.79
2023-05-21T00:35:49.957Z,87.89
2023-05-21T00:36:22.645Z,87.99
2023-05-21T00:36:55.305Z,87.99
2023-05-21T00:37:27.978Z,87.85
2023-05-21T00:38:00.658Z,87.89
2023-05-21T00:38:33.322Z,87.89
2023-05-21T00:39:06.003Z,87.99
2023-05-21T00:39:38.674Z,88.06
2023-05-21T00:40:11.337Z,88.10
2023-05-21T00:40:43.999Z,87.95
2023-05-21T00:41:16.686Z,87.99
2023-05-21T00:41:49.347Z,87.99
2023-05-21T00:42:22.012Z,87.85
2023-05-21T00:42:54.681Z,87.85
2023-05-21T00:43:27.352Z,87.79
2023-05-21T00:44:00.021Z,87.85
2023-05-21T00:44:32.708Z,87.99
2023-05-21T00:45:05.389Z,88.10
2023-05-21T00:45:38.560Z,88.20
2023-05-21T00:46:04.901Z,88.26
2023-05-21T00:46:37.569Z,88.20
2023-05-21T00:47:10.241Z,88.10
2023-05-21T00:47:42.951Z,88.20
2023-05-21T00:48:15.622Z,88.30
2023-05-21T00:48:46.731Z,88.50
2023-05-21T00:49:17.840Z,88.60
2023-05-21T00:49:50.492Z,88.50
2023-05-21T00:50:23.173Z,88.60
2023-05-21T00:50:55.827Z,88.60
2023-05-21T00:51:28.494Z,88.40
2023-05-21T00:52:01.156Z,88.20
2023-05-21T00:52:33.832Z,88.10
2023-05-21T00:53:06.525Z,87.99
2023-05-21T00:53:39.217Z,88.10
2023-05-21T00:54:13.259Z,88.10
2023-05-21T00:54:39.445Z,88.10
2023-05-21T00:55:12.148Z,88.10
2023-05-21T00:55:44.820Z,88.10
2023-05-21T00:56:17.504Z,87.99
2023-05-21T00:56:50.195Z,87.99
2023-05-21T00:57:22.861Z,88.10
2023-05-21T00:57:55.535Z,88.20
2023-05-21T00:58:28.208Z,88.20
2023-05-21T00:59:00.924Z,88.20
2023-05-21T00:59:33.593Z,88.40
2023-05-21T01:00:06.260Z,88.40
2023-05-21T01:00:38.931Z,88.50
2023-05-21T01:01:11.661Z,88.50
2023-05-21T01:01:44.374Z,88.40
2023-05-21T01:02:17.066Z,88.40
2023-05-21T01:02:49.835Z,88.40
2023-05-21T01:03:22.806Z,88.40
2023-05-21T01:03:55.538Z,88.50
2023-05-21T01:04:28.238Z,88.71
2023-05-21T01:05:00.886Z,88.71
2023-05-21T01:05:33.692Z,88.71
2023-05-21T01:06:06.513Z,88.71
2023-05-21T01:06:39.164Z,88.71
2023-05-21T01:07:11.831Z,88.71
2023-05-21T01:07:44.515Z,88.81
2023-05-21T01:08:17.183Z,88.81
2023-05-21T01:08:49.879Z,88.71
2023-05-21T01:09:22.565Z,88.71
2023-05-21T01:09:55.221Z,88.71
2023-05-21T01:10:27.881Z,88.81
2023-05-21T01:11:00.548Z,88.81
2023-05-21T01:11:33.234Z,88.91
2023-05-21T01:12:05.912Z,88.91
2023-05-21T01:12:38.593Z,89.01
2023-05-21T01:13:11.269Z,89.11
2023-05-21T01:13:43.926Z,89.01
2023-05-21T01:14:16.608Z,88.91
2023-05-21T01:14:49.289Z,88.95
2023-05-21T01:15:21.946Z,88.91
2023-05-21T01:15:54.632Z,89.05
2023-05-21T01:16:27.313Z,89.11
2023-05-21T01:17:00.022Z,89.26
2023-05-21T01:17:32.688Z,89.31
2023-05-21T01:18:05.419Z,89.22
2023-05-21T01:18:38.417Z,89.26
2023-05-21T01:19:04.868Z,89.22
2023-05-21T01:19:37.763Z,89.22
2023-05-21T01:20:10.461Z,89.26
2023-05-21T01:20:43.119Z,89.26
2023-05-21T01:21:15.787Z,89.15
2023-05-21T01:21:48.509Z,89.26
2023-05-21T01:22:21.168Z,89.26
2023-05-21T01:22:53.853Z,89.15
2023-05-21T01:23:26.513Z,89.05
2023-05-21T01:23:59.208Z,89.15
2023-05-21T01:24:31.879Z,89.36
2023-05-21T01:25:04.563Z,89.36
2023-05-21T01:25:37.478Z,89.46
2023-05-21T01:26:03.875Z,89.66
2023-05-21T01:26:36.542Z,89.66
2023-05-21T01:27:09.216Z,89.56
2023-05-21T01:27:41.888Z,89.56
2023-05-21T01:28:14.567Z,89.46
2023-05-21T01:28:47.247Z,89.46
2023-05-21T01:29:19.918Z,89.46
2023-05-21T01:29:52.591Z,89.46
2023-05-21T01:30:25.273Z,89.56
2023-05-21T01:30:57.933Z,89.66
2023-05-21T01:31:30.645Z,89.76
2023-05-21T01:32:03.303Z,89.76
2023-05-21T01:32:36.016Z,89.87
2023-05-21T01:33:08.704Z,89.87
2023-05-21T01:33:41.528Z,89.97
2023-05-21T01:34:07.977Z,89.97
2023-05-21T01:34:40.834Z,89.97
2023-05-21T01:35:13.591Z,90.07
2023-05-21T01:35:46.264Z,90.17
2023-05-21T01:36:18.928Z,90.07
2023-05-21T01:36:51.610Z,89.97
2023-05-21T01:37:24.277Z,89.97
2023-05-21T01:37:56.946Z,89.97
2023-05-21T01:38:29.608Z,89.76
2023-05-21T01:39:02.287Z,89.66
2023-05-21T01:39:34.960Z,89.66
2023-05-21T01:40:07.652Z,89.56
2023-05-21T01:40:40.332Z,89.56
2023-05-21T01:41:12.989Z,89.76
2023-05-21T01:41:45.708Z,89.76
2023-05-21T01:42:18.381Z,89.66
2023-05-21T01:42:51.043Z,89.56
2023-05-21T01:43:23.725Z,89.66
2023-05-21T01:43:56.408Z,89.87
2023-05-21T01:44:29.082Z,90.17
2023-05-21T01:45:01.743Z,90.07
2023-05-21T01:45:34.574Z,89.97
2023-05-21T01:46:07.365Z,89.97
2023-05-21T01:46:40.086Z,89.87
2023-05-21T01:47:12.799Z,89.87
2023-05-21T01:47:45.512Z,89.87
2023-05-21T01:48:18.172Z,89.97
2023-05-21T01:48:50.847Z,90.07
2023-05-21T01:49:23.509Z,90.07
2023-05-21T01:49:54.640Z,90.07
2023-05-21T01:50:27.329Z,90.07
2023-05-21T01:50:59.985Z,90.07
2023-05-21T01:51:32.672Z,90.37
2023-05-21T01:52:05.363Z,90.48
2023-05-21T01:52:38.042Z,90.37
2023-05-21T01:53:10.702Z,90.37
2023-05-21T01:53:43.376Z,90.37
2023-05-21T01:54:16.070Z,90.37
2023-05-21T01:54:48.733Z,90.48
2023-05-21T01:55:21.400Z,90.58
2023-05-21T01:55:54.091Z,90.48
2023-05-21T01:56:26.753Z,90.37
2023-05-21T01:56:59.437Z,90.37
2023-05-21T01:57:32.110Z,90.37
2023-05-21T01:58:04.777Z,90.37
2023-05-21T01:58:37.469Z,90.37
2023-05-21T01:59:10.157Z,90.68
2023-05-21T01:59:42.818Z,90.99
2023-05-21T02:00:15.495Z,91.09
2023-05-21T02:00:48.161Z,91.09
2023-05-21T02:01:20.871Z,91.09
2023-05-21T02:01:53.591Z,90.99
2023-05-21T02:02:26.358Z,90.88
2023-05-21T02:02:59.213Z,90.78
2023-05-21T02:03:32.049Z,90.88
2023-05-21T02:04:04.830Z,91.09
2023-05-21T02:04:37.515Z,91.80
2023-05-21T02:05:10.206Z,92.21
2023-05-21T02:05:42.845Z,92.30
2023-05-21T02:06:15.530Z,92.21
2023-05-21T02:06:48.213Z,92.00
2023-05-21T02:07:20.882Z,91.80
2023-05-21T02:07:53.557Z,91.69
2023-05-21T02:08:33.238Z,91.69
2023-05-21T02:08:52.904Z,91.69
2023-05-21T02:09:25.589Z,91.69
2023-05-21T02:09:58.247Z,91.69
2023-05-21T02:10:38.936Z,91.69
2023-05-21T02:10:58.627Z,91.69
2023-05-21T02:11:31.299Z,91.60
2023-05-21T02:12:03.995Z,92.10
2023-05-21T02:12:36.640Z,92.51
2023-05-21T02:13:09.314Z,92.51
2023-05-21T02:13:42.007Z,92.51
2023-05-21T02:14:14.669Z,92.51
2023-05-21T02:14:47.338Z,92.41
2023-05-21T02:15:20.059Z,92.00
2023-05-21T02:15:52.723Z,91.80
2023-05-21T02:16:25.465Z,92.61
2023-05-21T02:16:58.124Z,93.02
2023-05-21T02:17:30.798Z,92.91
2023-05-21T02:18:03.599Z,92.61
2023-05-21T02:18:36.251Z,92.41
2023-05-21T02:19:08.954Z,92.21
2023-05-21T02:19:41.598Z,92.00
2023-05-21T02:20:14.289Z,92.00
2023-05-21T02:20:46.949Z,91.80
2023-05-21T02:21:19.659Z,91.69
2023-05-21T02:21:52.321Z,91.80
2023-05-21T02:22:24.988Z,91.90
2023-05-21T02:22:57.683Z,91.84
2023-05-21T02:23:30.331Z,91.94
2023-05-21T02:24:02.997Z,91.84
2023-05-21T02:24:35.664Z,91.84
2023-05-21T02:25:08.351Z,91.84
2023-05-21T02:25:41.025Z,91.84
2023-05-21T02:26:13.722Z,91.74
2023-05-21T02:26:46.397Z,91.74
2023-05-21T02:27:19.057Z,91.74
2023-05-21T02:27:51.724Z,91.64
2023-05-21T02:28:24.407Z,91.64
2023-05-21T02:28:57.081Z,91.64
2023-05-21T02:29:29.758Z,91.64
2023-05-21T02:30:02.432Z,91.84
2023-05-21T02:30:35.102Z,92.04
2023-05-21T02:31:07.784Z,92.04
2023-05-21T02:31:40.461Z,92.04
2023-05-21T02:32:13.131Z,91.94
2023-05-21T02:32:45.837Z,91.84
2023-05-21T02:33:18.487Z,92.04
2023-05-21T02:33:51.330Z,92.14
2023-05-21T02:34:24.039Z,92.45
2023-05-21T02:34:56.687Z,92.45
2023-05-21T02:35:29.383Z,92.45
2023-05-21T02:36:02.024Z,92.35
2023-05-21T02:36:34.712Z,92.25
2023-05-21T02:37:07.378Z,92.14
2023-05-21T02:37:40.044Z,92.04
2023-05-21T02:38:12.710Z,92.04
2023-05-21T02:38:45.374Z,91.94
2023-05-21T02:39:18.043Z,91.94
2023-05-21T02:39:50.712Z,91.94
2023-05-21T02:40:23.392Z,92.14
2023-05-21T02:40:56.075Z,92.25
2023-05-21T02:41:28.752Z,92.35
2023-05-21T02:42:01.422Z,92.55
2023-05-21T02:42:34.092Z,92.65
2023-05-21T02:43:06.779Z,92.65
2023-05-21T02:43:39.461Z,92.55
2023-05-21T02:44:12.136Z,92.45
2023-05-21T02:44:44.804Z,92.35
2023-05-21T02:45:17.466Z,92.25
2023-05-21T02:45:50.144Z,92.35
2023-05-21T02:46:22.899Z,92.55
2023-05-21T02:46:55.675Z,92.65
2023-05-21T02:47:28.363Z,92.65
2023-05-21T02:48:01.072Z,92.65
2023-05-21T02:48:33.726Z,92.65
2023-05-21T02:49:06.381Z,92.76
2023-05-21T02:49:39.057Z,93.26
2023-05-21T02:50:11.710Z,93.98
2023-05-21T02:50:44.414Z,93.98
2023-05-21T02:51:17.089Z,93.87
2023-05-21T02:51:49.762Z,93.67
2023-05-21T02:52:22.424Z,93.47
2023-05-21T02:52:55.085Z,93.26
2023-05-21T02:53:27.748Z,93.16
2023-05-21T02:54:00.417Z,93.26
2023-05-21T02:54:33.082Z,93.16
2023-05-21T02:55:05.750Z,93.16
2023-05-21T02:55:38.606Z,93.16
2023-05-21T02:56:11.341Z,93.16
2023-05-21T02:56:44.022Z,93.16
2023-05-21T02:57:16.682Z,93.67
2023-05-21T02:57:49.346Z,93.98
2023-05-21T02:58:22.021Z,93.98
2023-05-21T02:58:54.721Z,93.87
2023-05-21T02:59:27.366Z,93.77
2023-05-21T03:00:00.058Z,93.67
2023-05-21T03:00:32.717Z,93.47
2023-05-21T03:01:05.429Z,93.37
2023-05-21T03:01:38.107Z,93.37
2023-05-21T03:02:10.815Z,93.37
2023-05-21T03:02:43.562Z,93.26
2023-05-21T03:03:16.503Z,93.37
2023-05-21T03:03:49.266Z,93.37
2023-05-21T03:04:22.023Z,93.37
2023-05-21T03:04:54.688Z,93.47
2023-05-21T03:05:27.360Z,93.47
2023-05-21T03:06:00.136Z,93.47
2023-05-21T03:06:32.794Z,93.26
2023-05-21T03:07:05.461Z,93.47
2023-05-21T03:07:38.148Z,93.57
2023-05-21T03:08:10.985Z,93.57
2023-05-21T03:08:43.686Z,93.67
2023-05-21T03:09:14.763Z,94.59
2023-05-21T03:09:47.442Z,94.74
2023-05-21T03:10:20.093Z,94.74
2023-05-21T03:10:52.768Z,94.54
2023-05-21T03:11:25.452Z,94.24
2023-05-21T03:11:58.115Z,94.13
2023-05-21T03:12:30.794Z,94.04
2023-05-21T03:13:03.478Z,93.83
2023-05-21T03:13:36.292Z,94.13
2023-05-21T03:14:08.979Z,94.64
2023-05-21T03:14:41.621Z,94.64
2023-05-21T03:15:14.311Z,94.64
2023-05-21T03:15:46.959Z,94.54
2023-05-21T03:16:19.703Z,94.48
2023-05-21T03:16:52.395Z,94.34
2023-05-21T03:17:25.089Z,94.34
2023-05-21T03:17:57.788Z,94.54
2023-05-21T03:18:28.842Z,94.54
2023-05-21T03:19:01.581Z,94.34
2023-05-21T03:19:34.247Z,94.44
2023-05-21T03:20:06.928Z,94.85
2023-05-21T03:20:39.614Z,94.74
2023-05-21T03:21:12.296Z,94.54
2023-05-21T03:21:45.030Z,94.34
2023-05-21T03:22:17.679Z,94.34
2023-05-21T03:22:50.392Z,94.85
2023-05-21T03:23:23.044Z,94.95
2023-05-21T03:23:55.719Z,94.85
2023-05-21T03:24:28.385Z,94.64
2023-05-21T03:25:01.043Z,94.54
2023-05-21T03:25:33.776Z,94.34
2023-05-21T03:26:06.476Z,94.24
2023-05-21T03:26:39.170Z,94.13
2023-05-21T03:27:11.856Z,94.04
2023-05-21T03:27:44.518Z,93.93
2023-05-21T03:28:17.190Z,93.93
2023-05-21T03:28:49.889Z,93.93
2023-05-21T03:29:22.540Z,93.83
2023-05-21T03:29:55.219Z,93.73
2023-05-21T03:30:27.883Z,93.83
2023-05-21T03:31:00.558Z,93.73
2023-05-21T03:31:33.263Z,93.63
2023-05-21T03:32:06.041Z,93.63
2023-05-21T03:32:38.753Z,93.73
2023-05-21T03:33:11.459Z,93.73
2023-05-21T03:33:44.117Z,93.63
2023-05-21T03:34:16.803Z,93.52
2023-05-21T03:34:49.453Z,93.63
2023-05-21T03:35:22.148Z,93.73
2023-05-21T03:35:54.807Z,93.63
2023-05-21T03:36:27.491Z,93.52
2023-05-21T03:37:00.184Z,93.52
2023-05-21T03:37:32.846Z,93.52
2023-05-21T03:38:05.524Z,93.63
2023-05-21T03:38:38.211Z,93.52
2023-05-21T03:39:10.866Z,93.52
2023-05-21T03:39:43.542Z,93.43
2023-05-21T03:40:16.216Z,93.43
2023-05-21T03:40:48.884Z,93.52
2023-05-21T03:41:21.568Z,93.73
2023-05-21T03:41:54.272Z,93.73
2023-05-21T03:42:26.951Z,93.83
2023-05-21T03:42:59.606Z,93.73
2023-05-21T03:43:32.275Z,94.24
2023-05-21T03:44:04.951Z,94.85
2023-05-21T03:44:37.616Z,94.95
2023-05-21T03:45:10.282Z,94.95
2023-05-21T03:45:44.485Z,94.85
2023-05-21T03:46:11.037Z,94.64
2023-05-21T03:46:43.732Z,94.54
2023-05-21T03:47:16.421Z,94.74
2023-05-21T03:47:49.116Z,94.85
2023-05-21T03:48:21.794Z,94.85
2023-05-21T03:48:54.474Z,94.85
2023-05-21T03:49:27.196Z,94.95
2023-05-21T03:49:59.863Z,94.95
2023-05-21T03:50:32.539Z,94.85
2023-05-21T03:51:05.205Z,94.74
2023-05-21T03:51:37.890Z,94.54
2023-05-21T03:52:10.570Z,94.34
2023-05-21T03:52:41.651Z,94.34
2023-05-21T03:53:14.323Z,94.85
2023-05-21T03:53:46.990Z,95.25
2023-05-21T03:54:19.670Z,95.25
2023-05-21T03:54:52.360Z,95.25
2023-05-21T03:55:25.055Z,95.15
2023-05-21T03:55:57.696Z,95.15
2023-05-21T03:56:30.358Z,95.15
2023-05-21T03:57:03.055Z,95.15
2023-05-21T03:57:35.767Z,95.15
2023-05-21T03:58:08.449Z,95.31
2023-05-21T03:58:41.118Z,95.31
2023-05-21T03:59:13.789Z,95.41
2023-05-21T03:59:46.472Z,95.41
2023-05-21T04:00:19.151Z,95.41
2023-05-21T04:00:51.823Z,95.31
2023-05-21T04:01:24.489Z,95.31
2023-05-21T04:01:57.182Z,95.21
2023-05-21T04:02:29.926Z,95.21
2023-05-21T04:03:02.685Z,95.10
2023-05-21T04:03:36.752Z,95.10
2023-05-21T04:04:04.196Z,95.01
2023-05-21T04:04:36.930Z,95.01
2023-05-21T04:05:09.598Z,94.90
2023-05-21T04:05:42.270Z,94.80
2023-05-21T04:06:14.946Z,94.70
2023-05-21T04:06:47.625Z,94.60
2023-05-21T04:07:20.293Z,94.80
2023-05-21T04:07:52.961Z,94.70
2023-05-21T04:08:25.630Z,94.80
2023-05-21T04:08:58.317Z,94.80
2023-05-21T04:09:31.027Z,94.70
2023-05-21T04:10:03.698Z,94.70
2023-05-21T04:10:36.396Z,94.60
2023-05-21T04:11:09.067Z,94.40
2023-05-21T04:11:41.754Z,94.40
2023-05-21T04:12:14.593Z,94.40
2023-05-21T04:12:47.267Z,94.29
2023-05-21T04:13:19.925Z,94.29
2023-05-21T04:13:52.625Z,94.09
2023-05-21T04:14:25.305Z,94.09
2023-05-21T04:14:57.969Z,93.89
2023-05-21T04:15:30.662Z,93.89
2023-05-21T04:16:03.385Z,93.89
2023-05-21T04:16:36.148Z,93.89
2023-05-21T04:17:08.836Z,93.79
2023-05-21T04:17:41.567Z,93.68
2023-05-21T04:18:14.268Z,93.59
2023-05-21T04:18:46.989Z,93.59
2023-05-21T04:19:19.666Z,93.48
2023-05-21T04:19:52.345Z,93.48
2023-05-21T04:20:25.029Z,93.38
2023-05-21T04:20:57.695Z,93.38
2023-05-21T04:21:30.358Z,93.28
2023-05-21T04:22:03.154Z,93.28
2023-05-21T04:22:35.794Z,93.38
2023-05-21T04:23:08.458Z,93.38
2023-05-21T04:23:41.135Z,93.38
2023-05-21T04:24:13.804Z,93.28
2023-05-21T04:24:46.516Z,93.28
2023-05-21T04:25:19.205Z,93.38
2023-05-21T04:25:51.849Z,93.28
2023-05-21T04:26:24.519Z,93.28
2023-05-21T04:26:57.201Z,93.28
2023-05-21T04:27:29.897Z,93.28
2023-05-21T04:28:02.563Z,93.28
2023-05-21T04:28:35.239Z,93.28
2023-05-21T04:29:07.907Z,93.48
2023-05-21T04:29:40.596Z,93.68
2023-05-21T04:30:13.267Z,93.99
2023-05-21T04:30:45.952Z,94.09
2023-05-21T04:31:18.663Z,94.20
2023-05-21T04:31:51.650Z,94.09
2023-05-21T04:32:24.393Z,93.89
2023-05-21T04:32:57.086Z,93.89
2023-05-21T04:33:29.792Z,93.89
2023-05-21T04:34:02.474Z,94.20
2023-05-21T04:34:35.157Z,94.40
2023-05-21T04:35:07.822Z,94.40
2023-05-21T04:35:40.503Z,94.60
2023-05-21T04:36:13.197Z,94.60
2023-05-21T04:36:45.851Z,94.60
2023-05-21T04:37:18.559Z,94.60
2023-05-21T04:37:51.205Z,94.50
2023-05-21T04:38:23.877Z,94.35
2023-05-21T04:38:56.553Z,94.35
2023-05-21T04:39:29.220Z,94.45
2023-05-21T04:40:01.946Z,94.45
2023-05-21T04:40:36.826Z,94.56
2023-05-21T04:41:03.304Z,94.45
2023-05-21T04:41:35.972Z,94.45
2023-05-21T04:42:08.667Z,94.56
2023-05-21T04:42:41.335Z,94.56
2023-05-21T04:43:14.029Z,94.56
2023-05-21T04:43:46.668Z,94.56
2023-05-21T04:44:19.353Z,94.45
2023-05-21T04:44:52.024Z,94.25
2023-05-21T04:45:24.727Z,94.35
2023-05-21T04:45:57.386Z,94.15
2023-05-21T04:46:30.060Z,94.00
2023-05-21T04:47:02.810Z,94.00
2023-05-21T04:47:35.867Z,94.00
2023-05-21T04:48:02.235Z,93.90
2023-05-21T04:48:34.932Z,94.00
2023-05-21T04:49:07.598Z,94.00
2023-05-21T04:49:40.258Z,94.10
2023-05-21T04:50:12.940Z,94.10
2023-05-21T04:50:45.598Z,94.10
2023-05-21T04:51:18.283Z,94.10
2023-05-21T04:51:50.956Z,94.00
2023-05-21T04:52:23.660Z,93.90
2023-05-21T04:52:56.324Z,93.76
2023-05-21T04:53:29.029Z,93.55
2023-05-21T04:54:01.699Z,93.45
2023-05-21T04:54:34.365Z,93.25
2023-05-21T04:55:07.032Z,93.15
2023-05-21T04:55:39.762Z,93.15
2023-05-21T04:56:12.463Z,93.35
2023-05-21T04:56:45.116Z,93.65
2023-05-21T04:57:17.820Z,93.65
2023-05-21T04:57:50.490Z,93.65
2023-05-21T04:58:23.192Z,93.55
2023-05-21T04:58:55.851Z,93.25
2023-05-21T04:59:28.503Z,93.10
2023-05-21T05:00:01.189Z,93.00
2023-05-21T05:00:33.853Z,93.00
2023-05-21T05:01:06.554Z,92.90
2023-05-21T05:01:39.213Z,92.80
2023-05-21T05:02:11.869Z,92.70
2023-05-21T05:02:44.600Z,92.60
2023-05-21T05:03:17.422Z,92.60
2023-05-21T05:03:50.142Z,92.49
2023-05-21T05:04:22.848Z,92.25
2023-05-21T05:04:55.526Z,92.14
2023-05-21T05:05:28.205Z,92.45
2023-05-21T05:06:00.869Z,92.96
2023-05-21T05:06:33.536Z,92.96
2023-05-21T05:07:06.206Z,92.76
2023-05-21T05:07:38.920Z,92.41
2023-05-21T05:08:12.738Z,92.31
2023-05-21T05:08:40.817Z,92.00
2023-05-21T05:09:13.482Z,91.90
2023-05-21T05:09:46.145Z,92.21
2023-05-21T05:10:17.238Z,92.10
2023-05-21T05:10:49.912Z,92.00
2023-05-21T05:11:22.678Z,91.60
2023-05-21T05:11:55.338Z,91.25
2023-05-21T05:12:28.015Z,91.05
2023-05-21T05:13:00.705Z,91.05
2023-05-21T05:13:33.366Z,91.25
2023-05-21T05:14:06.103Z,90.84
2023-05-21T05:14:38.749Z,90.54
2023-05-21T05:15:11.416Z,90.24
2023-05-21T05:15:44.080Z,90.14
2023-05-21T05:16:16.796Z,90.14
2023-05-21T05:16:49.514Z,90.09
2023-05-21T05:17:22.300Z,89.99
2023-05-21T05:17:55.056Z,90.09
2023-05-21T05:18:27.834Z,89.99
2023-05-21T05:19:00.540Z,89.89
2023-05-21T05:19:33.222Z,89.89
2023-05-21T05:20:05.869Z,89.69
2023-05-21T05:20:38.548Z,89.48
2023-05-21T05:21:11.207Z,89.39
2023-05-21T05:21:43.872Z,89.69
2023-05-21T05:22:16.717Z,89.79
2023-05-21T05:22:49.416Z,89.39
2023-05-21T05:23:22.055Z,89.18
2023-05-21T05:23:54.751Z,89.34
2023-05-21T05:24:27.402Z,89.24
2023-05-21T05:25:00.092Z,88.94
2023-05-21T05:25:32.754Z,89.04
2023-05-21T05:26:05.423Z,88.94
2023-05-21T05:26:38.085Z,88.74
2023-05-21T05:27:10.744Z,88.33
2023-05-21T05:27:43.430Z,88.33
2023-05-21T05:28:16.092Z,88.39
2023-05-21T05:28:48.763Z,88.29
2023-05-21T05:29:21.436Z,88.19
2023-05-21T05:29:54.109Z,88.59
2023-05-21T05:30:26.788Z,88.49
2023-05-21T05:30:59.499Z,88.29
2023-05-21T05:31:32.235Z,87.88
2023-05-21T05:32:04.934Z,87.79
2023-05-21T05:32:37.663Z,87.58
2023-05-21T05:33:10.335Z,87.38
2023-05-21T05:33:43.020Z,87.08
2023-05-21T05:34:15.680Z,87.04
2023-05-21T05:34:48.365Z,87.04
2023-05-21T05:35:21.062Z,87.04
2023-05-21T05:35:53.712Z,87.24
2023-05-21T05:36:26.381Z,87.24
2023-05-21T05:36:59.065Z,87.04
2023-05-21T05:37:31.733Z,86.93
2023-05-21T05:38:04.437Z,86.73
2023-05-21T05:38:37.078Z,86.93
2023-05-21T05:39:09.740Z,87.13
2023-05-21T05:39:42.410Z,86.93
2023-05-21T05:40:15.093Z,86.83
2023-05-21T05:40:47.729Z,86.73
2023-05-21T05:41:20.401Z,86.73
2023-05-21T05:41:53.100Z,86.63
2023-05-21T05:42:25.800Z,86.79
2023-05-21T05:42:58.477Z,86.69
2023-05-21T05:43:31.139Z,86.59
2023-05-21T05:44:03.808Z,86.49
2023-05-21T05:44:36.481Z,86.49
2023-05-21T05:45:09.155Z,86.59
2023-05-21T05:45:41.820Z,86.69
2023-05-21T05:46:14.535Z,86.59
2023-05-21T05:46:47.253Z,86.49
2023-05-21T05:47:19.962Z,86.35
2023-05-21T05:47:52.709Z,86.25
2023-05-21T05:48:25.421Z,85.84
2023-05-21T05:48:58.048Z,85.74
2023-05-21T05:49:30.735Z,85.64
2023-05-21T05:50:03.416Z,85.64
2023-05-21T05:50:36.082Z,85.14
2023-05-21T05:51:08.736Z,84.93
2023-05-21T05:51:41.400Z,84.63
2023-05-21T05:52:14.142Z,84.49
2023-05-21T05:52:46.808Z,84.29
2023-05-21T05:53:19.491Z,84.19
2023-05-21T05:53:52.130Z,83.98
2023-05-21T05:54:24.797Z,83.38
2023-05-21T05:54:57.478Z,83.38
2023-05-21T05:55:30.139Z,83.18
2023-05-21T05:56:01.248Z,83.18
2023-05-21T05:56:33.899Z,83.28
2023-05-21T05:57:06.575Z,83.38
2023-05-21T05:57:39.290Z,83.28
2023-05-21T05:58:11.971Z,83.28
2023-05-21T05:58:44.642Z,83.07
2023-05-21T05:59:17.315Z,82.43
2023-05-21T05:59:49.996Z,82.17
2023-05-21T06:00:22.650Z,82.17
2023-05-21T06:00:55.322Z,82.37
2023-05-21T06:01:27.990Z,82.13
2023-05-21T06:02:00.657Z,82.13
2023-05-21T06:02:33.431Z,82.23
2023-05-21T06:03:06.204Z,82.33
2023-05-21T06:03:39.078Z,82.33
2023-05-21T06:04:11.792Z,82.33
2023-05-21T06:04:44.476Z,82.23
2023-05-21T06:05:17.276Z,82.03
2023-05-21T06:05:50.082Z,82.23
2023-05-21T06:06:22.868Z,82.03
2023-05-21T06:06:55.541Z,81.62
2023-05-21T06:07:28.205Z,81.32
2023-05-21T06:08:00.895Z,81.52
2023-05-21T06:08:35.035Z,81.48
2023-05-21T06:09:02.832Z,81.48
2023-05-21T06:09:35.560Z,81.38
2023-05-21T06:10:08.208Z,81.28
2023-05-21T06:10:40.866Z,81.18
2023-05-21T06:11:13.545Z,80.88
2023-05-21T06:11:46.353Z,80.88
2023-05-21T06:12:19.044Z,80.98
2023-05-21T06:12:51.721Z,80.98
2023-05-21T06:13:24.380Z,80.78
2023-05-21T06:13:57.059Z,80.78
2023-05-21T06:14:29.718Z,80.88
2023-05-21T06:15:02.385Z,80.88
2023-05-21T06:15:35.317Z,80.47
2023-05-21T06:16:01.650Z,80.27
2023-05-21T06:16:34.419Z,80.38
2023-05-21T06:17:07.116Z,80.58
2023-05-21T06:17:39.799Z,80.47
2023-05-21T06:18:12.460Z,80.38
2023-05-21T06:18:45.166Z,80.27
2023-05-21T06:19:17.899Z,80.54
2023-05-21T06:19:50.574Z,80.33
2023-05-21T06:20:23.246Z,80.13
2023-05-21T06:20:55.969Z,80.33
2023-05-21T06:21:28.609Z,80.44
2023-05-21T06:22:01.279Z,80.64
2023-05-21T06:22:33.962Z,80.33
2023-05-21T06:23:06.644Z,80.33
2023-05-21T06:23:39.346Z,80.64
2023-05-21T06:24:11.989Z,80.64
2023-05-21T06:24:44.664Z,80.50
2023-05-21T06:25:17.349Z,79.53
2023-05-21T06:25:50.041Z,79.53
2023-05-21T06:26:22.718Z,79.19
2023-05-21T06:26:55.375Z,79.73
2023-05-21T06:27:28.035Z,79.60
2023-05-21T06:28:00.731Z,79.49
2023-05-21T06:28:33.389Z,79.29
2023-05-21T06:29:06.068Z,79.39
2023-05-21T06:29:38.746Z,79.39
2023-05-21T06:30:11.400Z,79.19
2023-05-21T06:30:44.071Z,78.99
2023-05-21T06:31:16.740Z,78.99
2023-05-21T06:31:49.400Z,78.79
2023-05-21T06:32:22.181Z,78.79
2023-05-21T06:32:54.962Z,78.79
2023-05-21T06:33:27.844Z,78.89
2023-05-21T06:34:00.837Z,78.99
2023-05-21T06:34:27.160Z,79.09
2023-05-21T06:34:59.832Z,78.99
2023-05-21T06:35:32.500Z,78.85
2023-05-21T06:36:05.168Z,78.55
2023-05-21T06:36:37.887Z,77.84
2023-05-21T06:37:10.525Z,77.84
2023-05-21T06:37:43.215Z,78.05
2023-05-21T06:38:15.908Z,78.05
2023-05-21T06:38:48.614Z,78.05
2023-05-21T06:39:21.266Z,78.05
2023-05-21T06:39:53.927Z,78.15
2023-05-21T06:40:26.578Z,78.15
2023-05-21T06:40:59.280Z,77.95
2023-05-21T06:41:31.929Z,77.84
2023-05-21T06:42:04.602Z,77.75
2023-05-21T06:42:37.276Z,77.84
2023-05-21T06:43:10.009Z,77.95
2023-05-21T06:43:42.694Z,78.05
2023-05-21T06:44:15.356Z,77.95
2023-05-21T06:44:48.031Z,78.05
2023-05-21T06:45:20.741Z,78.25
2023-05-21T06:45:53.399Z,78.05
2023-05-21T06:46:26.231Z,78.15
2023-05-21T06:46:59.003Z,77.95
2023-05-21T06:47:31.693Z,77.64
2023-05-21T06:48:04.421Z,77.55
2023-05-21T06:48:37.061Z,77.64
2023-05-21T06:49:10.053Z,77.64
2023-05-21T06:49:36.640Z,77.44
2023-05-21T06:50:09.296Z,77.44
2023-05-21T06:50:41.989Z,77.44
2023-05-21T06:51:14.641Z,77.20
2023-05-21T06:51:47.309Z,77.20
2023-05-21T06:52:19.977Z,77.40
2023-05-21T06:52:52.670Z,77.31
2023-05-21T06:53:25.324Z,76.90
2023-05-21T06:53:58.022Z,76.70
2023-05-21T06:54:30.660Z,76.80
2023-05-21T06:55:03.337Z,76.90
2023-05-21T06:55:36.181Z,76.70
2023-05-21T06:56:08.957Z,76.80
2023-05-21T06:56:41.622Z,76.80
2023-05-21T06:57:14.292Z,76.60
2023-05-21T06:57:46.956Z,76.60
2023-05-21T06:58:19.660Z,76.70
2023-05-21T06:58:52.318Z,76.60
2023-05-21T06:59:24.992Z,76.50